Terminal Aerodrome Forecast
Issued by NWS

Home | Current Version | Previous Version | Text Only | Print | Product List | Glossary On
Versions: 1 2 3 4 5 6 7 8 9 10 11 12 13 14 15 16 17
716
FTUS41 KBGM 231125
TAFELM
TAF
KELM 231125Z 2312/2412 VRB03KT 3SM BR OVC045
     FM231500 21011G20KT P6SM BKN040
     FM232200 25008KT P6SM BKN035
     FM240200 00000KT P6SM OVC030
     FM240900 00000KT P6SM -RA OVC015=

USA.gov is the U.S. government's official web portal to all federal, state and local government web resources and services.